sensor_id;sensor_type;location;lat;lon;timestamp;P1;durP1;ratioP1;P2;durP2;ratioP2
27706;SDS011;36332;51.384;0.040;2022-07-23T00:01:10;10.77;;;4.20;;
27706;SDS011;36332;51.384;0.040;2022-07-23T00:03:38;16.58;;;4.30;;
27706;SDS011;36332;51.384;0.040;2022-07-23T00:06:06;10.35;;;4.07;;
27706;SDS011;36332;51.384;0.040;2022-07-23T00:11:47;9.98;;;3.42;;
27706;SDS011;36332;51.384;0.040;2022-07-23T00:14:15;12.07;;;4.35;;
27706;SDS011;36332;51.384;0.040;2022-07-23T00:16:43;10.02;;;4.95;;
27706;SDS011;36332;51.384;0.040;2022-07-23T00:19:11;12.25;;;5.72;;
27706;SDS011;36332;51.384;0.040;2022-07-23T00:21:39;12.50;;;5.05;;
27706;SDS011;36332;51.384;0.040;2022-07-23T00:24:07;14.73;;;5.82;;
27706;SDS011;36332;51.384;0.040;2022-07-23T00:26:34;13.90;;;6.07;;
27706;SDS011;36332;51.384;0.040;2022-07-23T00:29:02;9.57;;;5.50;;
27706;SDS011;36332;51.384;0.040;2022-07-23T00:31:30;15.93;;;5.18;;
27706;SDS011;36332;51.384;0.040;2022-07-23T00:33:58;7.47;;;4.47;;
27706;SDS011;36332;51.384;0.040;2022-07-23T00:36:28;9.52;;;4.60;;
27706;SDS011;36332;51.384;0.040;2022-07-23T00:38:58;8.07;;;4.38;;
27706;SDS011;36332;51.384;0.040;2022-07-23T00:41:27;9.05;;;4.93;;
27706;SDS011;36332;51.384;0.040;2022-07-23T00:43:55;9.55;;;4.35;;
27706;SDS011;36332;51.384;0.040;2022-07-23T00:46:22;13.15;;;5.47;;
27706;SDS011;36332;51.384;0.040;2022-07-23T00:48:52;9.73;;;5.15;;
27706;SDS011;36332;51.384;0.040;2022-07-23T00:51:20;10.77;;;5.70;;
27706;SDS011;36332;51.384;0.040;2022-07-23T00:53:48;12.35;;;5.15;;
27706;SDS011;36332;51.384;0.040;2022-07-23T00:56:16;17.13;;;5.22;;
27706;SDS011;36332;51.384;0.040;2022-07-23T00:58:43;11.40;;;5.30;;
27706;SDS011;36332;51.384;0.040;2022-07-23T01:01:11;25.50;;;6.05;;
27706;SDS011;36332;51.384;0.040;2022-07-23T01:03:39;11.57;;;4.45;;
27706;SDS011;36332;51.384;0.040;2022-07-23T01:06:08;11.75;;;4.85;;
27706;SDS011;36332;51.384;0.040;2022-07-23T01:08:36;16.73;;;5.05;;
27706;SDS011;36332;51.384;0.040;2022-07-23T01:11:07;10.13;;;4.57;;
27706;SDS011;36332;51.384;0.040;2022-07-23T01:13:36;7.75;;;4.25;;
27706;SDS011;36332;51.384;0.040;2022-07-23T01:16:07;12.73;;;4.70;;
27706;SDS011;36332;51.384;0.040;2022-07-23T01:18:37;13.57;;;4.90;;
27706;SDS011;36332;51.384;0.040;2022-07-23T01:21:17;12.82;;;4.10;;
27706;SDS011;36332;51.384;0.040;2022-07-23T01:23:46;8.82;;;3.65;;
27706;SDS011;36332;51.384;0.040;2022-07-23T01:26:14;12.25;;;4.72;;
27706;SDS011;36332;51.384;0.040;2022-07-23T01:28:44;12.52;;;4.35;;
27706;SDS011;36332;51.384;0.040;2022-07-23T01:31:11;9.57;;;3.95;;
27706;SDS011;36332;51.384;0.040;2022-07-23T01:33:39;11.43;;;3.78;;
27706;SDS011;36332;51.384;0.040;2022-07-23T01:36:08;12.30;;;3.75;;
27706;SDS011;36332;51.384;0.040;2022-07-23T01:38:36;8.00;;;3.90;;
27706;SDS011;36332;51.384;0.040;2022-07-23T01:41:03;15.00;;;3.60;;
27706;SDS011;36332;51.384;0.040;2022-07-23T01:43:33;6.50;;;3.28;;
27706;SDS011;36332;51.384;0.040;2022-07-23T01:46:01;11.23;;;3.88;;
27706;SDS011;36332;51.384;0.040;2022-07-23T01:48:36;9.07;;;3.75;;
27706;SDS011;36332;51.384;0.040;2022-07-23T01:51:23;7.75;;;4.03;;
27706;SDS011;36332;51.384;0.040;2022-07-23T01:54:01;9.23;;;3.75;;
27706;SDS011;36332;51.384;0.040;2022-07-23T01:56:29;9.18;;;3.60;;
27706;SDS011;36332;51.384;0.040;2022-07-23T01:58:57;8.68;;;3.58;;
27706;SDS011;36332;51.384;0.040;2022-07-23T02:01:26;6.38;;;3.58;;
27706;SDS011;36332;51.384;0.040;2022-07-23T02:03:54;10.63;;;3.30;;
27706;SDS011;36332;51.384;0.040;2022-07-23T02:06:23;10.35;;;3.58;;
27706;SDS011;36332;51.384;0.040;2022-07-23T02:08:51;9.77;;;3.45;;
27706;SDS011;36332;51.384;0.040;2022-07-23T02:11:21;11.32;;;3.65;;
27706;SDS011;36332;51.384;0.040;2022-07-23T02:13:49;7.35;;;3.47;;
27706;SDS011;36332;51.384;0.040;2022-07-23T02:16:17;7.03;;;3.17;;
27706;SDS011;36332;51.384;0.040;2022-07-23T02:18:45;10.82;;;3.25;;
27706;SDS011;36332;51.384;0.040;2022-07-23T02:21:13;6.90;;;2.92;;
27706;SDS011;36332;51.384;0.040;2022-07-23T02:23:41;13.23;;;3.83;;
27706;SDS011;36332;51.384;0.040;2022-07-23T02:26:10;16.02;;;3.38;;
27706;SDS011;36332;51.384;0.040;2022-07-23T02:28:45;10.15;;;3.35;;
27706;SDS011;36332;51.384;0.040;2022-07-23T02:31:13;10.80;;;4.00;;
27706;SDS011;36332;51.384;0.040;2022-07-23T02:33:41;8.48;;;3.40;;
27706;SDS011;36332;51.384;0.040;2022-07-23T02:36:09;19.20;;;5.10;;
27706;SDS011;36332;51.384;0.040;2022-07-23T02:38:37;9.15;;;3.35;;
27706;SDS011;36332;51.384;0.040;2022-07-23T02:41:06;8.15;;;2.67;;
27706;SDS011;36332;51.384;0.040;2022-07-23T02:43:34;5.28;;;2.97;;
27706;SDS011;36332;51.384;0.040;2022-07-23T02:46:01;12.82;;;4.20;;
27706;SDS011;36332;51.384;0.040;2022-07-23T02:48:30;11.48;;;3.60;;
27706;SDS011;36332;51.384;0.040;2022-07-23T02:51:01;8.40;;;3.58;;
27706;SDS011;36332;51.384;0.040;2022-07-23T02:53:34;9.00;;;3.03;;
27706;SDS011;36332;51.384;0.040;2022-07-23T02:56:02;5.20;;;2.80;;
27706;SDS011;36332;51.384;0.040;2022-07-23T02:58:30;13.60;;;3.42;;
27706;SDS011;36332;51.384;0.040;2022-07-23T03:01:00;9.93;;;3.88;;
27706;SDS011;36332;51.384;0.040;2022-07-23T03:03:28;13.48;;;3.47;;
27706;SDS011;36332;51.384;0.040;2022-07-23T03:05:56;6.65;;;3.35;;
27706;SDS011;36332;51.384;0.040;2022-07-23T03:08:24;14.02;;;3.40;;
27706;SDS011;36332;51.384;0.040;2022-07-23T03:10:52;6.75;;;3.10;;
27706;SDS011;36332;51.384;0.040;2022-07-23T03:13:20;10.15;;;3.53;;
27706;SDS011;36332;51.384;0.040;2022-07-23T03:15:48;8.15;;;3.55;;
27706;SDS011;36332;51.384;0.040;2022-07-23T03:18:16;7.70;;;3.47;;
27706;SDS011;36332;51.384;0.040;2022-07-23T03:20:45;13.10;;;3.60;;
27706;SDS011;36332;51.384;0.040;2022-07-23T03:23:13;10.52;;;3.80;;
27706;SDS011;36332;51.384;0.040;2022-07-23T03:25:41;12.80;;;4.20;;
27706;SDS011;36332;51.384;0.040;2022-07-23T03:28:10;13.40;;;4.60;;
27706;SDS011;36332;51.384;0.040;2022-07-23T03:30:37;13.10;;;4.07;;
27706;SDS011;36332;51.384;0.040;2022-07-23T03:33:05;20.63;;;4.05;;
27706;SDS011;36332;51.384;0.040;2022-07-23T03:35:33;12.40;;;4.30;;
27706;SDS011;36332;51.384;0.040;2022-07-23T03:38:13;9.05;;;3.78;;
27706;SDS011;36332;51.384;0.040;2022-07-23T03:40:41;11.82;;;3.90;;
27706;SDS011;36332;51.384;0.040;2022-07-23T03:43:09;8.85;;;3.53;;
27706;SDS011;36332;51.384;0.040;2022-07-23T03:45:38;9.82;;;3.70;;
27706;SDS011;36332;51.384;0.040;2022-07-23T03:48:06;7.40;;;4.00;;
27706;SDS011;36332;51.384;0.040;2022-07-23T03:50:34;8.20;;;3.60;;
27706;SDS011;36332;51.384;0.040;2022-07-23T03:53:04;13.98;;;3.78;;
27706;SDS011;36332;51.384;0.040;2022-07-23T03:55:33;4.50;;;3.03;;
27706;SDS011;36332;51.384;0.040;2022-07-23T03:58:02;11.23;;;3.95;;
27706;SDS011;36332;51.384;0.040;2022-07-23T04:00:30;9.20;;;4.45;;
27706;SDS011;36332;51.384;0.040;2022-07-23T04:02:58;13.30;;;4.35;;
27706;SDS011;36332;51.384;0.040;2022-07-23T04:05:27;11.75;;;4.32;;
27706;SDS011;36332;51.384;0.040;2022-07-23T04:08:04;17.73;;;4.15;;
27706;SDS011;36332;51.384;0.040;2022-07-23T04:10:33;12.82;;;4.65;;
27706;SDS011;36332;51.384;0.040;2022-07-23T04:13:03;15.60;;;4.80;;
27706;SDS011;36332;51.384;0.040;2022-07-23T04:15:31;6.90;;;4.45;;
27706;SDS011;36332;51.384;0.040;2022-07-23T04:17:58;12.48;;;4.80;;
27706;SDS011;36332;51.384;0.040;2022-07-23T04:20:37;11.50;;;4.53;;
27706;SDS011;36332;51.384;0.040;2022-07-23T04:23:07;14.93;;;5.80;;
27706;SDS011;36332;51.384;0.040;2022-07-23T04:25:37;4.57;;;3.55;;
27706;SDS011;36332;51.384;0.040;2022-07-23T04:28:05;8.85;;;3.70;;
27706;SDS011;36332;51.384;0.040;2022-07-23T04:30:34;11.07;;;3.78;;
27706;SDS011;36332;51.384;0.040;2022-07-23T04:33:02;11.05;;;4.05;;
27706;SDS011;36332;51.384;0.040;2022-07-23T04:35:36;9.85;;;3.92;;
27706;SDS011;36332;51.384;0.040;2022-07-23T04:38:12;12.68;;;4.50;;
27706;SDS011;36332;51.384;0.040;2022-07-23T04:40:41;7.78;;;4.30;;
27706;SDS011;36332;51.384;0.040;2022-07-23T04:43:09;16.52;;;4.88;;
27706;SDS011;36332;51.384;0.040;2022-07-23T04:45:43;12.10;;;4.35;;
27706;SDS011;36332;51.384;0.040;2022-07-23T04:48:11;9.10;;;4.25;;
27706;SDS011;36332;51.384;0.040;2022-07-23T04:50:40;15.35;;;4.38;;
27706;SDS011;36332;51.384;0.040;2022-07-23T04:53:22;11.40;;;4.50;;
27706;SDS011;36332;51.384;0.040;2022-07-23T04:55:53;7.05;;;4.00;;
27706;SDS011;36332;51.384;0.040;2022-07-23T04:58:21;14.07;;;5.30;;
27706;SDS011;36332;51.384;0.040;2022-07-23T05:00:49;8.27;;;4.20;;
27706;SDS011;36332;51.384;0.040;2022-07-23T05:03:17;18.33;;;5.40;;
27706;SDS011;36332;51.384;0.040;2022-07-23T05:05:47;13.60;;;4.72;;
27706;SDS011;36332;51.384;0.040;2022-07-23T05:08:17;10.25;;;4.03;;
27706;SDS011;36332;51.384;0.040;2022-07-23T05:10:49;11.05;;;4.78;;
27706;SDS011;36332;51.384;0.040;2022-07-23T05:13:19;7.78;;;4.22;;
27706;SDS011;36332;51.384;0.040;2022-07-23T05:15:46;7.72;;;4.45;;
27706;SDS011;36332;51.384;0.040;2022-07-23T05:18:14;21.38;;;5.95;;
27706;SDS011;36332;51.384;0.040;2022-07-23T05:20:43;9.43;;;4.80;;
27706;SDS011;36332;51.384;0.040;2022-07-23T05:23:14;20.70;;;5.32;;
27706;SDS011;36332;51.384;0.040;2022-07-23T05:25:42;7.13;;;4.13;;
27706;SDS011;36332;51.384;0.040;2022-07-23T05:28:11;13.30;;;5.57;;
27706;SDS011;36332;51.384;0.040;2022-07-23T05:30:39;13.18;;;4.72;;
27706;SDS011;36332;51.384;0.040;2022-07-23T05:33:10;14.30;;;5.38;;
27706;SDS011;36332;51.384;0.040;2022-07-23T05:35:39;10.65;;;5.10;;
27706;SDS011;36332;51.384;0.040;2022-07-23T05:38:21;14.50;;;5.50;;
27706;SDS011;36332;51.384;0.040;2022-07-23T05:40:49;7.53;;;4.38;;
27706;SDS011;36332;51.384;0.040;2022-07-23T05:43:19;9.77;;;5.10;;
27706;SDS011;36332;51.384;0.040;2022-07-23T05:45:48;17.30;;;5.43;;
27706;SDS011;36332;51.384;0.040;2022-07-23T05:48:16;13.30;;;5.25;;
27706;SDS011;36332;51.384;0.040;2022-07-23T05:50:57;16.15;;;5.68;;
27706;SDS011;36332;51.384;0.040;2022-07-23T05:53:30;14.15;;;4.88;;
27706;SDS011;36332;51.384;0.040;2022-07-23T05:55:58;18.33;;;4.93;;
27706;SDS011;36332;51.384;0.040;2022-07-23T05:58:26;11.18;;;5.47;;
27706;SDS011;36332;51.384;0.040;2022-07-23T06:00:54;9.13;;;5.25;;
27706;SDS011;36332;51.384;0.040;2022-07-23T06:03:22;9.77;;;5.35;;
27706;SDS011;36332;51.384;0.040;2022-07-23T06:05:50;13.80;;;5.35;;
27706;SDS011;36332;51.384;0.040;2022-07-23T06:08:18;13.38;;;5.63;;
27706;SDS011;36332;51.384;0.040;2022-07-23T06:10:46;9.32;;;4.88;;
27706;SDS011;36332;51.384;0.040;2022-07-23T06:13:16;9.38;;;4.97;;
27706;SDS011;36332;51.384;0.040;2022-07-23T06:15:45;12.60;;;4.47;;
27706;SDS011;36332;51.384;0.040;2022-07-23T06:18:13;10.02;;;4.53;;
27706;SDS011;36332;51.384;0.040;2022-07-23T06:20:41;10.30;;;4.15;;
27706;SDS011;36332;51.384;0.040;2022-07-23T06:23:10;11.95;;;5.00;;
27706;SDS011;36332;51.384;0.040;2022-07-23T06:25:39;10.05;;;4.18;;
27706;SDS011;36332;51.384;0.040;2022-07-23T06:28:08;8.98;;;4.15;;
27706;SDS011;36332;51.384;0.040;2022-07-23T06:30:36;13.00;;;4.10;;
27706;SDS011;36332;51.384;0.040;2022-07-23T06:33:04;14.73;;;4.68;;
27706;SDS011;36332;51.384;0.040;2022-07-23T06:35:32;8.70;;;4.03;;
27706;SDS011;36332;51.384;0.040;2022-07-23T06:38:01;8.43;;;4.03;;
27706;SDS011;36332;51.384;0.040;2022-07-23T06:40:29;13.30;;;4.82;;
27706;SDS011;36332;51.384;0.040;2022-07-23T06:42:57;13.20;;;4.35;;
27706;SDS011;36332;51.384;0.040;2022-07-23T06:45:26;9.85;;;3.72;;
27706;SDS011;36332;51.384;0.040;2022-07-23T06:47:54;9.55;;;3.88;;
27706;SDS011;36332;51.384;0.040;2022-07-23T06:50:22;14.95;;;4.30;;
27706;SDS011;36332;51.384;0.040;2022-07-23T06:52:50;8.85;;;4.35;;
27706;SDS011;36332;51.384;0.040;2022-07-23T06:55:18;12.40;;;4.82;;
27706;SDS011;36332;51.384;0.040;2022-07-23T06:57:46;15.30;;;4.65;;
27706;SDS011;36332;51.384;0.040;2022-07-23T07:00:15;8.07;;;4.18;;
27706;SDS011;36332;51.384;0.040;2022-07-23T07:02:43;6.05;;;4.15;;
27706;SDS011;36332;51.384;0.040;2022-07-23T07:05:11;8.65;;;5.05;;
27706;SDS011;36332;51.384;0.040;2022-07-23T07:07:39;20.00;;;4.60;;
27706;SDS011;36332;51.384;0.040;2022-07-23T07:10:07;14.98;;;4.68;;
27706;SDS011;36332;51.384;0.040;2022-07-23T07:12:41;10.65;;;4.22;;
27706;SDS011;36332;51.384;0.040;2022-07-23T07:15:09;8.60;;;4.28;;
27706;SDS011;36332;51.384;0.040;2022-07-23T07:17:38;11.82;;;4.18;;
27706;SDS011;36332;51.384;0.040;2022-07-23T07:20:06;11.88;;;5.15;;
27706;SDS011;36332;51.384;0.040;2022-07-23T07:22:34;11.63;;;4.05;;
27706;SDS011;36332;51.384;0.040;2022-07-23T07:25:04;12.52;;;4.50;;
27706;SDS011;36332;51.384;0.040;2022-07-23T07:27:32;9.45;;;4.25;;
27706;SDS011;36332;51.384;0.040;2022-07-23T07:30:00;8.68;;;4.13;;
27706;SDS011;36332;51.384;0.040;2022-07-23T07:32:28;11.77;;;5.43;;
27706;SDS011;36332;51.384;0.040;2022-07-23T07:35:20;17.63;;;5.22;;
27706;SDS011;36332;51.384;0.040;2022-07-23T07:37:48;9.50;;;5.20;;
27706;SDS011;36332;51.384;0.040;2022-07-23T07:40:16;15.38;;;5.15;;
27706;SDS011;36332;51.384;0.040;2022-07-23T07:42:44;19.70;;;5.70;;
27706;SDS011;36332;51.384;0.040;2022-07-23T07:45:16;11.38;;;5.00;;
27706;SDS011;36332;51.384;0.040;2022-07-23T07:47:44;10.75;;;4.80;;
27706;SDS011;36332;51.384;0.040;2022-07-23T07:50:11;14.50;;;4.45;;
27706;SDS011;36332;51.384;0.040;2022-07-23T07:52:39;13.30;;;4.10;;
27706;SDS011;36332;51.384;0.040;2022-07-23T07:55:09;10.57;;;4.18;;
27706;SDS011;36332;51.384;0.040;2022-07-23T07:57:38;7.78;;;3.72;;
27706;SDS011;36332;51.384;0.040;2022-07-23T08:00:06;12.23;;;4.75;;
27706;SDS011;36332;51.384;0.040;2022-07-23T08:02:44;12.43;;;5.03;;
27706;SDS011;36332;51.384;0.040;2022-07-23T08:05:19;4.88;;;3.13;;
27706;SDS011;36332;51.384;0.040;2022-07-23T08:07:54;5.68;;;3.33;;
27706;SDS011;36332;51.384;0.040;2022-07-23T08:10:23;7.60;;;3.45;;
27706;SDS011;36332;51.384;0.040;2022-07-23T08:12:53;9.68;;;3.42;;
27706;SDS011;36332;51.384;0.040;2022-07-23T08:15:24;9.00;;;3.80;;
27706;SDS011;36332;51.384;0.040;2022-07-23T08:17:54;7.57;;;2.70;;
27706;SDS011;36332;51.384;0.040;2022-07-23T08:20:22;9.68;;;3.15;;
27706;SDS011;36332;51.384;0.040;2022-07-23T08:27:53;7.70;;;3.17;;
27706;SDS011;36332;51.384;0.040;2022-07-23T08:30:21;10.82;;;3.65;;
27706;SDS011;36332;51.384;0.040;2022-07-23T08:32:50;7.88;;;3.25;;
27706;SDS011;36332;51.384;0.040;2022-07-23T08:35:23;5.80;;;2.78;;
27706;SDS011;36332;51.384;0.040;2022-07-23T08:38:02;4.97;;;2.72;;
27706;SDS011;36332;51.384;0.040;2022-07-23T08:40:33;12.10;;;3.42;;
27706;SDS011;36332;51.384;0.040;2022-07-23T08:43:09;8.25;;;3.83;;
27706;SDS011;36332;51.384;0.040;2022-07-23T08:45:43;10.38;;;3.10;;
27706;SDS011;36332;51.384;0.040;2022-07-23T08:48:12;6.50;;;2.58;;
27706;SDS011;36332;51.384;0.040;2022-07-23T08:50:44;6.75;;;2.78;;
27706;SDS011;36332;51.384;0.040;2022-07-23T08:53:14;9.85;;;3.28;;
27706;SDS011;36332;51.384;0.040;2022-07-23T08:55:47;7.68;;;3.17;;
27706;SDS011;36332;51.384;0.040;2022-07-23T08:58:19;7.68;;;2.80;;
27706;SDS011;36332;51.384;0.040;2022-07-23T09:00:53;4.70;;;2.80;;
27706;SDS011;36332;51.384;0.040;2022-07-23T09:03:24;7.60;;;2.50;;
27706;SDS011;36332;51.384;0.040;2022-07-23T09:05:54;5.43;;;2.45;;
27706;SDS011;36332;51.384;0.040;2022-07-23T09:08:27;4.53;;;2.35;;
27706;SDS011;36332;51.384;0.040;2022-07-23T09:11:06;6.55;;;2.83;;
27706;SDS011;36332;51.384;0.040;2022-07-23T09:16:13;7.50;;;2.63;;
27706;SDS011;36332;51.384;0.040;2022-07-23T09:18:46;4.95;;;2.45;;
27706;SDS011;36332;51.384;0.040;2022-07-23T09:21:23;9.50;;;2.38;;
27706;SDS011;36332;51.384;0.040;2022-07-23T09:29:00;9.38;;;2.13;;
27706;SDS011;36332;51.384;0.040;2022-07-23T09:31:41;5.43;;;2.50;;
27706;SDS011;36332;51.384;0.040;2022-07-23T09:34:29;4.68;;;2.33;;
27706;SDS011;36332;51.384;0.040;2022-07-23T09:37:13;5.60;;;2.13;;
27706;SDS011;36332;51.384;0.040;2022-07-23T09:42:16;6.57;;;2.08;;
27706;SDS011;36332;51.384;0.040;2022-07-23T09:44:44;8.25;;;2.40;;
27706;SDS011;36332;51.384;0.040;2022-07-23T09:47:14;3.08;;;2.28;;
27706;SDS011;36332;51.384;0.040;2022-07-23T09:49:57;4.50;;;2.20;;
27706;SDS011;36332;51.384;0.040;2022-07-23T09:52:28;4.03;;;2.42;;
27706;SDS011;36332;51.384;0.040;2022-07-23T09:55:03;4.45;;;2.20;;
27706;SDS011;36332;51.384;0.040;2022-07-23T09:57:32;4.53;;;2.20;;
27706;SDS011;36332;51.384;0.040;2022-07-23T10:00:01;5.55;;;2.40;;
27706;SDS011;36332;51.384;0.040;2022-07-23T10:02:34;9.45;;;3.15;;
27706;SDS011;36332;51.384;0.040;2022-07-23T10:08:11;5.07;;;2.08;;
27706;SDS011;36332;51.384;0.040;2022-07-23T10:11:00;6.38;;;2.25;;
27706;SDS011;36332;51.384;0.040;2022-07-23T10:13:46;4.93;;;1.90;;
27706;SDS011;36332;51.384;0.040;2022-07-23T10:16:51;9.10;;;2.40;;
27706;SDS011;36332;51.384;0.040;2022-07-23T10:19:19;5.18;;;2.28;;
27706;SDS011;36332;51.384;0.040;2022-07-23T10:22:01;4.95;;;2.10;;
27706;SDS011;36332;51.384;0.040;2022-07-23T10:24:52;7.57;;;2.20;;
27706;SDS011;36332;51.384;0.040;2022-07-23T10:29:52;4.47;;;1.60;;
27706;SDS011;36332;51.384;0.040;2022-07-23T10:32:49;3.58;;;1.95;;
27706;SDS011;36332;51.384;0.040;2022-07-23T10:38:07;5.65;;;1.90;;
27706;SDS011;36332;51.384;0.040;2022-07-23T10:43:31;4.25;;;1.92;;
27706;SDS011;36332;51.384;0.040;2022-07-23T10:54:41;4.75;;;2.25;;
27706;SDS011;36332;51.384;0.040;2022-07-23T10:57:19;3.33;;;1.60;;
27706;SDS011;36332;51.384;0.040;2022-07-23T11:02:32;7.20;;;2.20;;
27706;SDS011;36332;51.384;0.040;2022-07-23T11:05:10;3.10;;;1.77;;
27706;SDS011;36332;51.384;0.040;2022-07-23T11:08:28;4.22;;;1.83;;
27706;SDS011;36332;51.384;0.040;2022-07-23T11:10:34;6.78;;;2.33;;
27706;SDS011;36332;51.384;0.040;2022-07-23T11:31:56;5.50;;;1.88;;
27706;SDS011;36332;51.384;0.040;2022-07-23T11:34:31;4.45;;;1.88;;
27706;SDS011;36332;51.384;0.040;2022-07-23T11:37:10;5.35;;;1.75;;
27706;SDS011;36332;51.384;0.040;2022-07-23T11:39:38;3.45;;;2.00;;
27706;SDS011;36332;51.384;0.040;2022-07-23T11:42:07;4.45;;;1.83;;
27706;SDS011;36332;51.384;0.040;2022-07-23T11:44:35;4.10;;;2.05;;
27706;SDS011;36332;51.384;0.040;2022-07-23T11:47:09;8.63;;;2.70;;
27706;SDS011;36332;51.384;0.040;2022-07-23T11:49:37;6.95;;;2.00;;
27706;SDS011;36332;51.384;0.040;2022-07-23T11:52:06;4.05;;;2.15;;
27706;SDS011;36332;51.384;0.040;2022-07-23T11:57:23;5.43;;;1.85;;
27706;SDS011;36332;51.384;0.040;2022-07-23T11:59:57;4.45;;;1.77;;
27706;SDS011;36332;51.384;0.040;2022-07-23T12:02:42;6.40;;;2.55;;
27706;SDS011;36332;51.384;0.040;2022-07-23T12:05:12;4.32;;;2.03;;
27706;SDS011;36332;51.384;0.040;2022-07-23T12:07:44;4.97;;;1.65;;
27706;SDS011;36332;51.384;0.040;2022-07-23T12:10:23;2.95;;;1.73;;
27706;SDS011;36332;51.384;0.040;2022-07-23T12:12:56;5.25;;;1.90;;
27706;SDS011;36332;51.384;0.040;2022-07-23T12:15:27;4.47;;;1.73;;
27706;SDS011;36332;51.384;0.040;2022-07-23T12:18:00;6.43;;;2.00;;
27706;SDS011;36332;51.384;0.040;2022-07-23T12:20:29;5.82;;;2.25;;
27706;SDS011;36332;51.384;0.040;2022-07-23T12:22:59;3.85;;;2.25;;
27706;SDS011;36332;51.384;0.040;2022-07-23T12:25:36;4.85;;;2.00;;
27706;SDS011;36332;51.384;0.040;2022-07-23T12:28:10;3.85;;;1.83;;
27706;SDS011;36332;51.384;0.040;2022-07-23T12:33:23;2.40;;;1.58;;
27706;SDS011;36332;51.384;0.040;2022-07-23T12:36:00;6.97;;;1.98;;
27706;SDS011;36332;51.384;0.040;2022-07-23T12:38:41;8.85;;;2.38;;
27706;SDS011;36332;51.384;0.040;2022-07-23T12:41:10;4.65;;;2.08;;
27706;SDS011;36332;51.384;0.040;2022-07-23T12:43:42;4.63;;;1.58;;
27706;SDS011;36332;51.384;0.040;2022-07-23T12:46:12;4.32;;;3.05;;
27706;SDS011;36332;51.384;0.040;2022-07-23T12:51:26;2.83;;;1.70;;
27706;SDS011;36332;51.384;0.040;2022-07-23T12:53:57;2.95;;;1.42;;
27706;SDS011;36332;51.384;0.040;2022-07-23T12:56:33;5.30;;;1.90;;
27706;SDS011;36332;51.384;0.040;2022-07-23T13:01:39;9.98;;;1.90;;
27706;SDS011;36332;51.384;0.040;2022-07-23T13:04:10;3.55;;;1.92;;
27706;SDS011;36332;51.384;0.040;2022-07-23T13:06:48;5.32;;;1.70;;
27706;SDS011;36332;51.384;0.040;2022-07-23T13:09:18;9.32;;;2.00;;
27706;SDS011;36332;51.384;0.040;2022-07-23T13:11:47;6.40;;;1.75;;
27706;SDS011;36332;51.384;0.040;2022-07-23T13:14:17;6.85;;;2.28;;
27706;SDS011;36332;51.384;0.040;2022-07-23T13:16:48;5.45;;;2.70;;
27706;SDS011;36332;51.384;0.040;2022-07-23T13:19:18;4.75;;;1.90;;
27706;SDS011;36332;51.384;0.040;2022-07-23T13:21:50;4.47;;;1.80;;
27706;SDS011;36332;51.384;0.040;2022-07-23T13:24:18;2.88;;;1.67;;
27706;SDS011;36332;51.384;0.040;2022-07-23T13:26:46;4.60;;;1.70;;
27706;SDS011;36332;51.384;0.040;2022-07-23T13:29:16;3.42;;;1.75;;
27706;SDS011;36332;51.384;0.040;2022-07-23T13:31:46;4.65;;;1.40;;
27706;SDS011;36332;51.384;0.040;2022-07-23T13:34:36;4.70;;;1.45;;
27706;SDS011;36332;51.384;0.040;2022-07-23T13:37:06;3.97;;;1.70;;
27706;SDS011;36332;51.384;0.040;2022-07-23T13:39:34;4.40;;;1.75;;
27706;SDS011;36332;51.384;0.040;2022-07-23T13:42:05;4.65;;;2.10;;
27706;SDS011;36332;51.384;0.040;2022-07-23T13:44:34;2.65;;;1.35;;
27706;SDS011;36332;51.384;0.040;2022-07-23T13:47:02;2.80;;;1.67;;
27706;SDS011;36332;51.384;0.040;2022-07-23T13:49:31;2.15;;;1.48;;
27706;SDS011;36332;51.384;0.040;2022-07-23T13:52:01;4.45;;;2.63;;
27706;SDS011;36332;51.384;0.040;2022-07-23T13:54:35;6.50;;;1.65;;
27706;SDS011;36332;51.384;0.040;2022-07-23T13:57:03;5.38;;;2.92;;
27706;SDS011;36332;51.384;0.040;2022-07-23T13:59:31;4.15;;;1.80;;
27706;SDS011;36332;51.384;0.040;2022-07-23T14:01:59;6.15;;;1.88;;
27706;SDS011;36332;51.384;0.040;2022-07-23T14:04:47;8.65;;;3.78;;
27706;SDS011;36332;51.384;0.040;2022-07-23T14:07:15;6.95;;;1.67;;
27706;SDS011;36332;51.384;0.040;2022-07-23T14:09:43;3.15;;;1.70;;
27706;SDS011;36332;51.384;0.040;2022-07-23T14:12:11;4.40;;;1.92;;
27706;SDS011;36332;51.384;0.040;2022-07-23T14:14:43;4.70;;;1.90;;
27706;SDS011;36332;51.384;0.040;2022-07-23T14:17:10;7.85;;;2.15;;
27706;SDS011;36332;51.384;0.040;2022-07-23T14:19:39;4.28;;;1.70;;
27706;SDS011;36332;51.384;0.040;2022-07-23T14:22:06;7.45;;;2.95;;
27706;SDS011;36332;51.384;0.040;2022-07-23T14:24:34;1.95;;;1.25;;
27706;SDS011;36332;51.384;0.040;2022-07-23T14:27:02;3.25;;;1.63;;
27706;SDS011;36332;51.384;0.040;2022-07-23T14:29:31;4.25;;;2.42;;
27706;SDS011;36332;51.384;0.040;2022-07-23T14:32:01;3.70;;;1.77;;
27706;SDS011;36332;51.384;0.040;2022-07-23T14:34:29;5.53;;;1.80;;
27706;SDS011;36332;51.384;0.040;2022-07-23T14:36:57;4.10;;;2.00;;
27706;SDS011;36332;51.384;0.040;2022-07-23T14:39:26;3.83;;;1.80;;
27706;SDS011;36332;51.384;0.040;2022-07-23T14:41:54;2.50;;;1.20;;
27706;SDS011;36332;51.384;0.040;2022-07-23T14:44:22;5.13;;;1.75;;
27706;SDS011;36332;51.384;0.040;2022-07-23T14:46:50;3.03;;;1.52;;
27706;SDS011;36332;51.384;0.040;2022-07-23T14:49:17;2.95;;;1.63;;
27706;SDS011;36332;51.384;0.040;2022-07-23T14:51:45;3.80;;;1.50;;
27706;SDS011;36332;51.384;0.040;2022-07-23T14:54:13;9.32;;;2.05;;
27706;SDS011;36332;51.384;0.040;2022-07-23T14:56:41;7.40;;;2.05;;
27706;SDS011;36332;51.384;0.040;2022-07-23T14:59:10;5.32;;;1.75;;
27706;SDS011;36332;51.384;0.040;2022-07-23T15:01:38;5.35;;;1.60;;
27706;SDS011;36332;51.384;0.040;2022-07-23T15:04:06;4.07;;;1.90;;
27706;SDS011;36332;51.384;0.040;2022-07-23T15:06:54;2.40;;;1.67;;
27706;SDS011;36332;51.384;0.040;2022-07-23T15:09:22;7.50;;;2.33;;
27706;SDS011;36332;51.384;0.040;2022-07-23T15:11:50;2.33;;;1.50;;
27706;SDS011;36332;51.384;0.040;2022-07-23T15:14:18;5.82;;;1.70;;
27706;SDS011;36332;51.384;0.040;2022-07-23T15:16:55;4.85;;;1.50;;
27706;SDS011;36332;51.384;0.040;2022-07-23T15:19:23;5.20;;;1.90;;
27706;SDS011;36332;51.384;0.040;2022-07-23T15:21:51;4.18;;;1.98;;
27706;SDS011;36332;51.384;0.040;2022-07-23T15:24:19;4.63;;;1.88;;
27706;SDS011;36332;51.384;0.040;2022-07-23T15:26:47;4.40;;;1.63;;
27706;SDS011;36332;51.384;0.040;2022-07-23T15:29:15;5.15;;;1.60;;
27706;SDS011;36332;51.384;0.040;2022-07-23T15:31:47;3.17;;;1.90;;
27706;SDS011;36332;51.384;0.040;2022-07-23T15:34:25;7.63;;;1.73;;
27706;SDS011;36332;51.384;0.040;2022-07-23T15:36:53;2.85;;;1.80;;
27706;SDS011;36332;51.384;0.040;2022-07-23T15:39:21;5.70;;;1.75;;
27706;SDS011;36332;51.384;0.040;2022-07-23T15:41:49;2.70;;;1.50;;
27706;SDS011;36332;51.384;0.040;2022-07-23T15:44:18;11.38;;;1.90;;
27706;SDS011;36332;51.384;0.040;2022-07-23T15:46:56;5.47;;;1.73;;
27706;SDS011;36332;51.384;0.040;2022-07-23T15:49:25;1.40;;;1.20;;
27706;SDS011;36332;51.384;0.040;2022-07-23T15:51:55;2.75;;;1.60;;
27706;SDS011;36332;51.384;0.040;2022-07-23T15:54:24;5.25;;;1.67;;
27706;SDS011;36332;51.384;0.040;2022-07-23T15:56:52;4.32;;;1.70;;
27706;SDS011;36332;51.384;0.040;2022-07-23T15:59:21;1.75;;;1.48;;
27706;SDS011;36332;51.384;0.040;2022-07-23T16:01:55;4.82;;;2.00;;
27706;SDS011;36332;51.384;0.040;2022-07-23T16:04:23;3.75;;;1.65;;
27706;SDS011;36332;51.384;0.040;2022-07-23T16:06:51;9.82;;;2.88;;
27706;SDS011;36332;51.384;0.040;2022-07-23T16:09:19;3.05;;;1.70;;
27706;SDS011;36332;51.384;0.040;2022-07-23T16:11:47;3.25;;;1.83;;
27706;SDS011;36332;51.384;0.040;2022-07-23T16:14:15;2.55;;;1.48;;